Hav Tind — OZ2071 — position and weather

sailwx.info

Track history (hours):
 
Tides and Currents Weather Stations Pressure Air Temp Water Temp Dewpoint Dewpoint Depression Visibility Wind Speed Wind Dir Waves Ship Positions

Hav Tind

Last reported at 2015-May-29 08:20 UTC. Time now 2015-May-29 10:18 UTC.
Position N 62°14' W 006°48'.

Length 60 m; draft 4 m.

Type: Cargo ship. MMSI: 231565000.

Date/timePositionNaut miles runAvg speedWind from/ knotsBaromVisibWave heightAir tempDewpointWater temp
2015-May-29 08:20N 62°14' W 006°48'0 0.0
2015-May-29 07:26N 62°14' W 006°48'0 0.0
2015-May-29 05:26N 62°14' W 006°48'0 0.0
2015-May-29 02:08N 62°14' W 006°48'0 0.0
2015-May-28 17:29N 62°14' W 006°48'2 1.0
2015-May-28 15:30N 62°14' W 006°44'9 9.4
2015-May-28 14:33N 62°05' W 006°37'5 4.6
2015-May-28 13:23N 62°07' W 006°48'0 0.3
2015-May-28 12:33N 62°07' W 006°48'3 3.2
2015-May-28 11:32N 62°03' W 006°49'6 6.1
2015-May-28 10:33N 62°06' W 006°38'9 0.8
2015-May-27 23:22N 62°14' W 006°48'0 0.0
2015-May-27 18:28N 62°14' W 006°48'0 0.0
2015-May-27 15:04N 62°14' W 006°48'3 5.0
2015-May-27 14:32N 62°17' W 006°49'3 0.9
2015-May-27 11:11N 62°14' W 006°47'  
2015-May-22 08:16N 62°14' W 006°47'1 0.1
2015-May-22 03:11N 62°14' W 006°48'0 0.0
2015-May-21 20:29N 62°14' W 006°48'0 0.0
2015-May-19 23:15N 62°14' W 006°48'0 0.0
2015-May-19 22:33N 62°14' W 006°48'0 0.0
2015-May-19 19:18N 62°14' W 006°48'0 0.0
2015-May-19 18:15N 62°14' W 006°48'0 0.0
2015-May-19 17:24N 62°14' W 006°48'2 2.4
2015-May-19 16:33N 62°14' W 006°44'9 8.8
2015-May-19 15:33N 62°05' W 006°39'6 6.2
2015-May-19 14:33N 62°07' W 006°51'6 5.2
2015-May-19 13:27N 62°11' W 007°01'0 0.0
2015-May-19 12:33N 62°11' W 007°01'0 0.0
2015-May-19 11:30N 62°11' W 007°01'  
Track history (hours):
 
Tides and Currents Weather Stations Pressure Air Temp Water Temp Dewpoint Dewpoint Depression Visibility Wind Speed Wind Dir Waves Ship Positions

Hav Tind

Last reported at 2015-May-29 08:20 UTC. Time now 2015-May-29 10:18 UTC.
Position N 62°14' W 006°48'.

Length 60 m; draft 4 m.

Type: Cargo ship. MMSI: 231565000.

Date/timePositionNaut miles runAvg speedWind from/ knotsBaromVisibWave heightAir tempDewpointWater temp
2015-May-29 08:20N 62°14' W 006°48'0 0.0
2015-May-29 07:26N 62°14' W 006°48'0 0.0
2015-May-29 05:26N 62°14' W 006°48'0 0.0
2015-May-29 02:08N 62°14' W 006°48'0 0.0
2015-May-28 17:29N 62°14' W 006°48'2 1.0
2015-May-28 15:30N 62°14' W 006°44'9 9.4
2015-May-28 14:33N 62°05' W 006°37'5 4.6
2015-May-28 13:23N 62°07' W 006°48'0 0.3
2015-May-28 12:33N 62°07' W 006°48'3 3.2
2015-May-28 11:32N 62°03' W 006°49'6 6.1
2015-May-28 10:33N 62°06' W 006°38'9 0.8
2015-May-27 23:22N 62°14' W 006°48'0 0.0
2015-May-27 18:28N 62°14' W 006°48'0 0.0
2015-May-27 15:04N 62°14' W 006°48'3 5.0
2015-May-27 14:32N 62°17' W 006°49'3 0.9
2015-May-27 11:11N 62°14' W 006°47'  
2015-May-22 08:16N 62°14' W 006°47'1 0.1
2015-May-22 03:11N 62°14' W 006°48'0 0.0
2015-May-21 20:29N 62°14' W 006°48'0 0.0
2015-May-19 23:15N 62°14' W 006°48'0 0.0
2015-May-19 22:33N 62°14' W 006°48'0 0.0
2015-May-19 19:18N 62°14' W 006°48'0 0.0
2015-May-19 18:15N 62°14' W 006°48'0 0.0
2015-May-19 17:24N 62°14' W 006°48'2 2.4
2015-May-19 16:33N 62°14' W 006°44'9 8.8
2015-May-19 15:33N 62°05' W 006°39'6 6.2
2015-May-19 14:33N 62°07' W 006°51'6 5.2
2015-May-19 13:27N 62°11' W 007°01'0 0.0
2015-May-19 12:33N 62°11' W 007°01'0 0.0
2015-May-19 11:30N 62°11' W 007°01'  

Dump ship's entire track history